createdAt,value
2018-11-06T00:01:53.117Z,10.20
2018-11-06T00:05:02.808Z,10.10
2018-11-06T00:08:07.089Z,10.10
2018-11-06T00:11:12.294Z,10.10
2018-11-06T00:14:16.579Z,10.10
2018-11-06T00:17:20.840Z,10.10
2018-11-06T00:20:25.130Z,10.10
2018-11-06T00:23:29.417Z,10.10
2018-11-06T00:26:33.701Z,10.10
2018-11-06T00:29:38.033Z,10.10
2018-11-06T00:32:42.950Z,10.10
2018-11-06T00:35:47.251Z,10.10
2018-11-06T00:38:51.547Z,10.10
2018-11-06T00:41:55.845Z,10.10
2018-11-06T00:45:00.102Z,10.10
2018-11-06T00:48:04.359Z,10.00
2018-11-06T00:51:08.666Z,10.00
2018-11-06T00:54:12.957Z,10.00
2018-11-06T00:57:17.241Z,10.00
2018-11-06T01:00:21.557Z,10.00
2018-11-06T01:03:31.209Z,10.00
2018-11-06T01:06:35.553Z,10.00
2018-11-06T01:09:39.851Z,10.00
2018-11-06T01:12:44.110Z,9.90
2018-11-06T01:15:48.404Z,9.90
2018-11-06T01:18:52.765Z,9.90
2018-11-06T01:21:57.035Z,9.90
2018-11-06T01:25:02.140Z,9.90
2018-11-06T01:28:06.799Z,9.90
2018-11-06T01:31:11.227Z,9.90
2018-11-06T01:34:15.597Z,9.90
2018-11-06T01:37:19.974Z,9.90
2018-11-06T01:40:24.363Z,9.90
2018-11-06T01:43:28.751Z,9.90
2018-11-06T01:46:33.129Z,9.90
2018-11-06T01:49:37.552Z,9.90
2018-11-06T01:52:43.032Z,9.80
2018-11-06T01:55:47.296Z,9.80
2018-11-06T01:58:51.646Z,9.80
2018-11-06T02:01:55.972Z,9.80
2018-11-06T02:05:00.283Z,9.80
2018-11-06T02:08:04.540Z,9.80
2018-11-06T02:11:08.845Z,9.80
2018-11-06T02:14:13.117Z,9.80
2018-11-06T02:17:17.404Z,9.70
2018-11-06T02:20:21.681Z,9.70
2018-11-06T02:23:25.974Z,9.70
2018-11-06T02:26:30.276Z,9.70
2018-11-06T02:29:34.561Z,9.70
2018-11-06T02:32:38.846Z,9.70
2018-11-06T02:35:43.132Z,9.70
2018-11-06T02:38:47.574Z,9.70
2018-11-06T02:41:51.853Z,9.60
2018-11-06T02:44:56.098Z,9.60
2018-11-06T02:48:00.353Z,9.60
2018-11-06T02:51:04.638Z,9.50
2018-11-06T02:54:08.904Z,9.50
2018-11-06T02:57:13.198Z,9.50
2018-11-06T03:00:18.295Z,9.50
2018-11-06T03:03:22.585Z,9.50
2018-11-06T03:06:26.858Z,9.50
2018-11-06T03:09:31.142Z,9.50
2018-11-06T03:12:35.429Z,9.50
2018-11-06T03:15:39.697Z,9.50
2018-11-06T03:18:43.953Z,9.50
2018-11-06T03:21:48.212Z,9.50
2018-11-06T03:24:52.492Z,9.50
2018-11-06T03:27:56.777Z,9.50
2018-11-06T03:31:01.063Z,9.50
2018-11-06T03:34:05.522Z,9.50
2018-11-06T03:37:09.813Z,9.50
2018-11-06T03:40:14.561Z,9.40
2018-11-06T03:43:18.821Z,9.50
2018-11-06T03:46:23.128Z,9.40
2018-11-06T03:49:27.385Z,9.40
2018-11-06T03:52:31.665Z,9.40
2018-11-06T03:55:35.925Z,9.40
2018-11-06T03:58:40.225Z,9.40
2018-11-06T04:01:44.493Z,9.40
2018-11-06T04:04:48.746Z,9.40
2018-11-06T04:07:53.069Z,9.40
2018-11-06T04:10:57.359Z,9.40
2018-11-06T04:14:01.655Z,9.40
2018-11-06T04:17:06.045Z,9.30
2018-11-06T04:20:10.925Z,9.40
2018-11-06T04:23:15.268Z,9.40
2018-11-06T04:26:19.573Z,9.30
2018-11-06T04:29:23.862Z,9.40
2018-11-06T04:32:28.136Z,9.40
2018-11-06T04:35:32.513Z,9.40
2018-11-06T04:38:36.790Z,9.40
2018-11-06T04:41:41.089Z,9.30
2018-11-06T04:44:45.380Z,9.30
2018-11-06T04:47:49.695Z,9.30
2018-11-06T04:50:53.966Z,9.30
2018-11-06T04:54:00.288Z,9.30
2018-11-06T04:57:04.564Z,9.30
2018-11-06T05:00:11.301Z,9.30
2018-11-06T05:03:15.585Z,9.30
2018-11-06T05:06:19.920Z,9.30
2018-11-06T05:09:24.228Z,9.30
2018-11-06T05:12:28.489Z,9.20
2018-11-06T05:15:32.768Z,9.20
2018-11-06T05:18:37.100Z,9.10
2018-11-06T05:21:41.424Z,9.20
2018-11-06T05:24:45.687Z,9.10
2018-11-06T05:27:49.966Z,9.10
2018-11-06T05:30:54.283Z,9.10
2018-11-06T05:33:58.517Z,9.10
2018-11-06T05:37:02.854Z,9.10
2018-11-06T05:40:24.249Z,9.10
2018-11-06T05:43:28.524Z,9.10
2018-11-06T05:46:32.822Z,9.10
2018-11-06T05:49:37.099Z,9.10
2018-11-06T05:52:41.369Z,9.10
2018-11-06T05:55:45.644Z,9.10
2018-11-06T05:58:49.948Z,9.00
2018-11-06T06:01:54.209Z,9.00
2018-11-06T06:04:58.507Z,9.00
2018-11-06T06:08:02.849Z,8.90
2018-11-06T06:11:07.575Z,9.00
2018-11-06T06:14:11.820Z,8.90
2018-11-06T06:17:16.169Z,8.90
2018-11-06T06:20:20.418Z,8.90
2018-11-06T06:23:24.728Z,8.90
2018-11-06T06:26:29.005Z,8.80
2018-11-06T06:29:33.340Z,8.80
2018-11-06T06:32:37.617Z,8.80
2018-11-06T06:35:41.924Z,8.80
2018-11-06T06:38:46.295Z,8.80
2018-11-06T06:41:50.517Z,8.70
2018-11-06T06:44:54.801Z,8.70
2018-11-06T06:47:59.102Z,8.70
2018-11-06T06:51:03.429Z,8.70
2018-11-06T06:54:07.809Z,8.70
2018-11-06T06:57:12.098Z,8.70
2018-11-06T07:00:17.584Z,8.70
2018-11-06T07:03:22.202Z,8.70
2018-11-06T07:06:26.458Z,8.70
2018-11-06T07:09:30.816Z,8.70
2018-11-06T07:12:35.071Z,8.70
2018-11-06T07:15:39.409Z,8.70
2018-11-06T07:18:43.829Z,8.70
2018-11-06T07:21:47.987Z,8.80
2018-11-06T07:24:52.362Z,8.80
2018-11-06T07:27:56.671Z,8.80
2018-11-06T07:31:01.040Z,8.80
2018-11-06T07:34:05.485Z,8.80
2018-11-06T07:37:09.733Z,8.80
2018-11-06T07:40:15.627Z,8.90
2018-11-06T07:43:19.890Z,8.90
2018-11-06T07:46:24.171Z,8.90
2018-11-06T07:49:28.413Z,8.90
2018-11-06T07:52:32.682Z,8.90
2018-11-06T07:55:36.967Z,8.90
2018-11-06T07:58:41.218Z,8.90
2018-11-06T08:01:45.436Z,8.90
2018-11-06T08:04:49.726Z,9.00
2018-11-06T08:07:54.011Z,9.00
2018-11-06T08:10:58.254Z,9.00
2018-11-06T08:14:02.524Z,9.00
2018-11-06T08:17:07.258Z,9.00
2018-11-06T08:20:11.560Z,9.00
2018-11-06T08:23:15.837Z,9.10
2018-11-06T08:26:20.112Z,9.10
2018-11-06T08:29:24.539Z,9.10
2018-11-06T08:32:29.214Z,9.10
2018-11-06T08:35:33.224Z,9.10
2018-11-06T08:38:37.522Z,9.10
2018-11-06T08:41:41.918Z,9.10
2018-11-06T08:44:46.320Z,9.10
2018-11-06T08:47:50.642Z,9.10
2018-11-06T08:50:55.006Z,9.20
2018-11-06T08:53:59.350Z,9.20
2018-11-06T08:57:03.664Z,9.20
2018-11-06T09:00:11.785Z,9.20
2018-11-06T09:03:16.256Z,9.20
2018-11-06T09:06:20.541Z,9.20
2018-11-06T09:09:24.797Z,9.20
2018-11-06T09:12:29.077Z,9.30
2018-11-06T09:15:33.385Z,9.30
2018-11-06T09:18:37.725Z,9.30
2018-11-06T09:21:42.036Z,9.30
2018-11-06T09:24:46.272Z,9.30
2018-11-06T09:27:50.559Z,9.30
2018-11-06T09:30:54.890Z,9.30
2018-11-06T09:33:59.647Z,9.30
2018-11-06T09:37:03.889Z,9.40
2018-11-06T09:40:10.724Z,9.40
2018-11-06T09:43:14.989Z,9.40
2018-11-06T09:46:19.240Z,9.30
2018-11-06T09:49:23.545Z,9.30
2018-11-06T09:52:27.790Z,9.40
2018-11-06T09:55:33.638Z,9.40
2018-11-06T09:58:38.434Z,9.40
2018-11-06T10:01:42.800Z,9.40
2018-11-06T10:04:48.137Z,9.40
2018-11-06T10:07:52.590Z,9.40
2018-11-06T10:10:56.944Z,9.40
2018-11-06T10:14:01.949Z,9.40
2018-11-06T10:17:06.400Z,9.40
2018-11-06T10:20:12.013Z,9.40
2018-11-06T10:23:16.327Z,9.40
2018-11-06T10:26:20.576Z,9.40
2018-11-06T10:29:24.976Z,9.50
2018-11-06T10:32:29.233Z,9.50
2018-11-06T10:35:33.628Z,9.50
2018-11-06T10:38:37.910Z,9.40
2018-11-06T10:41:42.244Z,9.50
2018-11-06T10:44:46.575Z,9.50
2018-11-06T10:47:50.854Z,9.50
2018-11-06T10:50:55.132Z,9.50
2018-11-06T10:53:59.458Z,9.50
2018-11-06T10:57:03.773Z,9.50
2018-11-06T11:00:16.018Z,9.50
2018-11-06T11:03:25.725Z,9.50
2018-11-06T11:06:30.122Z,9.50
2018-11-06T11:09:34.500Z,9.50
2018-11-06T11:12:38.920Z,9.50
2018-11-06T11:15:43.088Z,9.50
2018-11-06T11:18:47.892Z,9.50
2018-11-06T11:21:52.236Z,9.50
2018-11-06T11:24:56.467Z,9.50
2018-11-06T11:28:00.860Z,9.50
2018-11-06T11:31:05.512Z,9.60
2018-11-06T11:34:09.787Z,9.60
2018-11-06T11:37:14.125Z,9.60
2018-11-06T11:40:18.682Z,9.60
2018-11-06T11:43:23.578Z,9.70
2018-11-06T11:46:27.850Z,9.70
2018-11-06T11:49:32.270Z,9.70
2018-11-06T11:52:36.586Z,9.70
2018-11-06T11:55:40.894Z,9.80
2018-11-06T11:58:45.146Z,9.80
2018-11-06T12:01:49.540Z,9.80
2018-11-06T12:04:53.868Z,9.80
2018-11-06T12:07:58.096Z,9.80
2018-11-06T12:11:02.340Z,9.80
2018-11-06T12:14:06.726Z,9.80
2018-11-06T12:17:11.021Z,9.80
2018-11-06T12:20:15.801Z,9.80
2018-11-06T12:23:20.033Z,9.90
2018-11-06T12:26:24.305Z,9.80
2018-11-06T12:29:28.603Z,9.90
2018-11-06T12:32:32.906Z,9.90
2018-11-06T12:35:37.138Z,9.90
2018-11-06T12:38:41.414Z,9.90
2018-11-06T12:41:45.778Z,10.00
2018-11-06T12:44:50.016Z,10.00
2018-11-06T12:47:54.470Z,10.00
2018-11-06T12:50:58.699Z,10.00
2018-11-06T12:54:03.001Z,10.00
2018-11-06T12:57:07.266Z,10.00
2018-11-06T13:00:19.195Z,10.00
2018-11-06T13:03:23.465Z,10.00
2018-11-06T13:06:27.867Z,10.00
2018-11-06T13:09:32.104Z,10.10
2018-11-06T13:12:36.433Z,10.10
2018-11-06T13:15:40.700Z,10.10
2018-11-06T13:18:44.977Z,10.10
2018-11-06T13:21:49.216Z,10.20
2018-11-06T13:24:53.493Z,10.10
2018-11-06T13:27:57.766Z,10.20
2018-11-06T13:31:02.038Z,10.20
2018-11-06T13:34:06.298Z,10.10
2018-11-06T13:37:10.572Z,10.10
2018-11-06T13:40:15.975Z,10.10
2018-11-06T13:43:20.294Z,10.00
2018-11-06T13:46:24.509Z,10.00
2018-11-06T13:49:28.920Z,10.00
2018-11-06T13:52:33.256Z,9.90
2018-11-06T13:55:37.563Z,10.00
2018-11-06T13:58:41.937Z,10.00
2018-11-06T14:01:47.229Z,10.00
2018-11-06T14:04:51.630Z,9.90
2018-11-06T14:07:56.024Z,9.90
2018-11-06T14:11:00.306Z,9.80
2018-11-06T14:14:04.684Z,9.80
2018-11-06T14:17:08.928Z,9.70
2018-11-06T14:20:14.516Z,9.70
2018-11-06T14:23:19.147Z,9.60
2018-11-06T14:26:23.451Z,9.60
2018-11-06T14:29:27.660Z,9.60
2018-11-06T14:32:31.944Z,9.60
2018-11-06T14:35:36.248Z,9.60
2018-11-06T14:38:40.504Z,9.50
2018-11-06T14:41:44.791Z,9.50
2018-11-06T14:44:49.033Z,9.40
2018-11-06T14:47:53.340Z,9.40
2018-11-06T14:50:57.552Z,9.40
2018-11-06T14:54:01.843Z,9.40
2018-11-06T14:57:06.504Z,9.40
2018-11-06T15:00:17.451Z,9.30
2018-11-06T15:03:23.116Z,9.30
2018-11-06T15:06:27.362Z,9.30
2018-11-06T15:09:32.200Z,9.20
2018-11-06T15:12:36.503Z,9.30
2018-11-06T15:15:40.810Z,9.30
2018-11-06T15:18:45.166Z,9.20
2018-11-06T15:21:49.440Z,9.20
2018-11-06T15:24:53.744Z,9.10
2018-11-06T15:27:58.020Z,9.10
2018-11-06T15:31:02.269Z,9.20
2018-11-06T15:34:07.887Z,9.20
2018-11-06T15:37:12.544Z,9.10
2018-11-06T15:40:20.074Z,9.10
2018-11-06T15:43:24.543Z,9.10
2018-11-06T15:46:29.054Z,9.00
2018-11-06T15:49:37.869Z,9.00
2018-11-06T15:52:42.909Z,9.00
2018-11-06T15:55:47.364Z,9.00
2018-11-06T15:58:54.264Z,8.90
2018-11-06T16:01:59.282Z,8.90
2018-11-06T16:05:03.955Z,8.90
2018-11-06T16:08:09.287Z,8.80
2018-11-06T16:11:14.127Z,8.80
2018-11-06T16:14:18.635Z,8.80
2018-11-06T16:17:23.232Z,8.80
2018-11-06T16:20:30.015Z,8.80
2018-11-06T16:23:35.358Z,8.80
2018-11-06T16:26:40.561Z,8.80
2018-11-06T16:29:45.988Z,8.80
2018-11-06T16:32:51.915Z,8.80
2018-11-06T16:35:56.413Z,8.70
2018-11-06T16:39:00.793Z,8.70
2018-11-06T16:42:06.493Z,8.70
2018-11-06T16:45:16.330Z,8.70
2018-11-06T16:48:23.924Z,8.70
2018-11-06T16:51:29.075Z,8.70
2018-11-06T16:54:33.731Z,8.70
2018-11-06T16:57:38.819Z,8.70
2018-11-06T17:00:43.433Z,8.70
2018-11-06T17:03:47.745Z,8.70
2018-11-06T17:06:53.853Z,8.70
2018-11-06T17:09:58.414Z,8.70
2018-11-06T17:13:04.835Z,8.70
2018-11-06T17:16:09.889Z,8.70
2018-11-06T17:19:14.907Z,8.70
2018-11-06T17:22:22.752Z,8.60
2018-11-06T17:25:27.749Z,8.60
2018-11-06T17:28:33.158Z,8.60
2018-11-06T17:31:38.568Z,8.60
2018-11-06T17:34:42.837Z,8.60
2018-11-06T17:37:47.135Z,8.60
2018-11-06T17:40:53.034Z,8.60
2018-11-06T17:43:59.395Z,8.50
2018-11-06T17:47:05.620Z,8.40
2018-11-06T17:50:12.160Z,8.40
2018-11-06T17:53:16.639Z,8.40
2018-11-06T17:56:21.398Z,8.40
2018-11-06T17:59:26.339Z,8.50
2018-11-06T18:02:31.558Z,8.50
2018-11-06T18:05:38.984Z,8.50
2018-11-06T18:08:43.607Z,8.50
2018-11-06T18:11:51.018Z,8.50
2018-11-06T18:14:56.348Z,8.50
2018-11-06T18:18:00.900Z,8.50
2018-11-06T18:21:07.999Z,8.50
2018-11-06T18:24:14.183Z,8.50
2018-11-06T18:27:20.557Z,8.50
2018-11-06T18:30:24.869Z,8.50
2018-11-06T18:33:29.149Z,8.50
2018-11-06T18:36:33.429Z,8.50
2018-11-06T18:39:37.701Z,8.50
2018-11-06T18:42:42.311Z,8.60
2018-11-06T18:45:46.592Z,8.60
2018-11-06T18:48:50.823Z,8.60
2018-11-06T18:51:55.149Z,8.70
2018-11-06T18:54:59.388Z,8.70
2018-11-06T18:58:03.706Z,8.70
2018-11-06T19:01:07.926Z,8.70
2018-11-06T19:04:12.222Z,8.70
2018-11-06T19:07:16.478Z,8.80
2018-11-06T19:10:20.792Z,8.80
2018-11-06T19:13:25.100Z,8.80
2018-11-06T19:16:29.350Z,8.80
2018-11-06T19:19:33.678Z,8.80
2018-11-06T19:22:37.975Z,8.80
2018-11-06T19:25:42.232Z,8.90
2018-11-06T19:28:46.482Z,8.90
2018-11-06T19:31:50.770Z,8.90
2018-11-06T19:34:55.017Z,8.90
2018-11-06T19:37:59.274Z,8.90
2018-11-06T19:41:03.512Z,8.90
2018-11-06T19:44:08.233Z,8.90
2018-11-06T19:47:12.519Z,8.90
2018-11-06T19:50:18.246Z,8.90
2018-11-06T19:53:22.564Z,8.90
2018-11-06T19:56:26.843Z,8.90
2018-11-06T19:59:31.509Z,8.90
2018-11-06T20:02:35.751Z,8.90
2018-11-06T20:05:39.996Z,8.90
2018-11-06T20:08:44.244Z,8.90
2018-11-06T20:11:48.573Z,8.90
2018-11-06T20:14:52.738Z,8.90
2018-11-06T20:17:57.066Z,8.80
2018-11-06T20:21:01.238Z,8.80
2018-11-06T20:24:05.806Z,8.80
2018-11-06T20:27:10.026Z,8.80
2018-11-06T20:30:17.182Z,8.80
2018-11-06T20:33:21.482Z,8.70
2018-11-06T20:36:25.733Z,8.70
2018-11-06T20:39:29.999Z,8.70
2018-11-06T20:42:34.261Z,8.70
2018-11-06T20:45:38.603Z,8.70
2018-11-06T20:48:42.924Z,8.70
2018-11-06T20:51:47.222Z,8.70
2018-11-06T20:54:51.481Z,8.70
2018-11-06T20:57:55.748Z,8.60
2018-11-06T21:01:00.041Z,8.60
2018-11-06T21:04:04.289Z,8.60
2018-11-06T21:07:08.565Z,8.60
2018-11-06T21:10:13.683Z,8.60
2018-11-06T21:13:18.031Z,8.60
2018-11-06T21:16:22.253Z,8.50
2018-11-06T21:19:26.525Z,8.50
2018-11-06T21:22:30.761Z,8.50
2018-11-06T21:25:35.304Z,8.50
2018-11-06T21:28:39.330Z,8.50
2018-11-06T21:31:43.588Z,8.50
2018-11-06T21:34:48.712Z,8.50
2018-11-06T21:37:52.966Z,8.50
2018-11-06T21:40:57.255Z,8.50
2018-11-06T21:44:01.526Z,8.50
2018-11-06T21:47:05.967Z,8.50
2018-11-06T21:50:11.467Z,8.50
2018-11-06T21:53:15.739Z,8.50
2018-11-06T21:56:20.030Z,8.50
2018-11-06T21:59:24.321Z,8.50
2018-11-06T22:02:28.589Z,8.50
2018-11-06T22:05:32.856Z,8.60
2018-11-06T22:08:37.104Z,8.50
2018-11-06T22:11:41.457Z,8.50
2018-11-06T22:14:45.733Z,8.50
2018-11-06T22:17:50.053Z,8.50
2018-11-06T22:20:54.367Z,8.50
2018-11-06T22:23:58.687Z,8.50
2018-11-06T22:27:02.975Z,8.50
2018-11-06T22:30:11.717Z,8.50
2018-11-06T22:33:16.056Z,8.50
2018-11-06T22:36:20.329Z,8.50
2018-11-06T22:39:24.649Z,8.50
2018-11-06T22:42:28.889Z,8.40
2018-11-06T22:45:33.159Z,8.40
2018-11-06T22:48:38.501Z,8.40
2018-11-06T22:51:42.796Z,8.40
2018-11-06T22:54:47.060Z,8.40
2018-11-06T22:57:51.336Z,8.50
2018-11-06T23:01:00.896Z,8.50
2018-11-06T23:04:05.188Z,8.50
2018-11-06T23:07:13.710Z,8.50
2018-11-06T23:10:17.858Z,8.50
2018-11-06T23:13:22.147Z,8.50
2018-11-06T23:16:26.417Z,8.60
2018-11-06T23:19:30.704Z,8.60
2018-11-06T23:22:34.994Z,8.60
2018-11-06T23:25:39.269Z,8.60
2018-11-06T23:28:43.514Z,8.60
2018-11-06T23:31:47.853Z,8.60
2018-11-06T23:34:52.081Z,8.70
2018-11-06T23:37:56.386Z,8.60
2018-11-06T23:41:00.701Z,8.60
2018-11-06T23:44:05.117Z,8.60
2018-11-06T23:47:09.399Z,8.70
2018-11-06T23:50:13.661Z,8.70
2018-11-06T23:53:17.960Z,8.70
2018-11-06T23:56:22.241Z,8.70
2018-11-06T23:59:27.769Z,8.70
